LEAL Airport Information

Runway Information
Runway 10 Length 9842 ft width 148 ft
Elevation 142 ft Threshold 0 ft Heading 100
Runway 28 Length 9842 ft Width 148 ft
Elevation 44 ft Threshold 0 ft Heading 280
Airport Frequencies
Type APP Name APP Frequency 118.8 MHZ
Type ATIS Name ATIS Frequency 113.8 MHZ
Type GND Name GND Frequency 121.7 MHZ
Type TWR Name TWR Frequency 118.15 MHZ
Airport Navaids
Type VOR-DME Name Alicante Frequency 113800 KHZ
Type VOR-DME Name Alicante Frequency 114650 KHZ
Airport Weather Information & NOTAM
ADDS - METARS form results

(1028 UTC 24 June 2018)
 
METAR text: LEAL 241000Z 11007KT 070V140 CAVOK 27/17 Q1017 NOSIG
Conditions at: LEAL (ALICANTE/EL ALTE, ES) observed 1000 UTC 24 June 2018
Temperature: 27.0°C (81°F)
Dewpoint: 17.0°C (63°F) [RH = 54%]
Pressure (altimeter): 30.03 inches Hg (1017.0 mb)
Winds: from the ESE (110 degrees) at 8 MPH (7 knots; 3.6 m/s)
Visibility: 6 or more miles (10+ km)
Ceiling: ceiling and visibility are OK
Clouds: unknown
Weather: no significant weather observed at this time

METAR text: LEAL 240930Z 08007KT 040V130 CAVOK 27/17 Q1017 NOSIG
Conditions at: LEAL (ALICANTE/EL ALTE, ES) observed 0930 UTC 24 June 2018
Temperature: 27.0°C (81°F)
Dewpoint: 17.0°C (63°F) [RH = 54%]
Pressure (altimeter): 30.03 inches Hg (1017.0 mb)
Winds: from the E (80 degrees) at 8 MPH (7 knots; 3.6 m/s)
Visibility: 6 or more miles (10+ km)
Ceiling: ceiling and visibility are OK
Clouds: unknown
Weather: no significant weather observed at this time